sensor_id;sensor_type;location;lat;lon;timestamp;P1;durP1;ratioP1;P2;durP2;ratioP2
15130;SDS011;7666;50.920;4.628;2023-02-15T00:02:11;40.20;;;29.30;;
15130;SDS011;7666;50.920;4.628;2023-02-15T00:04:56;43.23;;;30.20;;
15130;SDS011;7666;50.920;4.628;2023-02-15T00:07:42;41.47;;;29.00;;
15130;SDS011;7666;50.920;4.628;2023-02-15T00:10:28;41.03;;;30.57;;
15130;SDS011;7666;50.920;4.628;2023-02-15T00:13:14;45.97;;;31.30;;
15130;SDS011;7666;50.920;4.628;2023-02-15T00:16:04;43.63;;;30.53;;
15130;SDS011;7666;50.920;4.628;2023-02-15T00:18:51;43.50;;;31.33;;
15130;SDS011;7666;50.920;4.628;2023-02-15T00:21:38;39.90;;;28.13;;
15130;SDS011;7666;50.920;4.628;2023-02-15T00:24:24;40.67;;;27.67;;
15130;SDS011;7666;50.920;4.628;2023-02-15T00:27:11;38.17;;;27.13;;
15130;SDS011;7666;50.920;4.628;2023-02-15T00:29:57;42.43;;;29.20;;
15130;SDS011;7666;50.920;4.628;2023-02-15T00:32:43;43.30;;;32.00;;
15130;SDS011;7666;50.920;4.628;2023-02-15T00:35:29;43.23;;;31.23;;
15130;SDS011;7666;50.920;4.628;2023-02-15T00:38:15;40.37;;;28.27;;
15130;SDS011;7666;50.920;4.628;2023-02-15T00:41:02;42.23;;;28.30;;
15130;SDS011;7666;50.920;4.628;2023-02-15T00:43:50;37.80;;;27.00;;
15130;SDS011;7666;50.920;4.628;2023-02-15T00:46:36;28.37;;;20.17;;
15130;SDS011;7666;50.920;4.628;2023-02-15T00:49:22;42.60;;;29.27;;
15130;SDS011;7666;50.920;4.628;2023-02-15T00:52:08;46.60;;;32.53;;
15130;SDS011;7666;50.920;4.628;2023-02-15T00:54:54;44.50;;;29.10;;
15130;SDS011;7666;50.920;4.628;2023-02-15T00:57:40;42.43;;;29.73;;
15130;SDS011;7666;50.920;4.628;2023-02-15T01:00:26;39.40;;;28.70;;
15130;SDS011;7666;50.920;4.628;2023-02-15T01:03:13;38.60;;;27.47;;
15130;SDS011;7666;50.920;4.628;2023-02-15T01:06:00;35.37;;;25.70;;
15130;SDS011;7666;50.920;4.628;2023-02-15T01:08:47;37.33;;;28.20;;
15130;SDS011;7666;50.920;4.628;2023-02-15T01:11:33;38.03;;;28.77;;
15130;SDS011;7666;50.920;4.628;2023-02-15T01:14:19;41.93;;;30.87;;
15130;SDS011;7666;50.920;4.628;2023-02-15T01:17:05;71.27;;;45.27;;
15130;SDS011;7666;50.920;4.628;2023-02-15T01:19:51;72.60;;;46.93;;
15130;SDS011;7666;50.920;4.628;2023-02-15T01:22:37;71.63;;;48.47;;
15130;SDS011;7666;50.920;4.628;2023-02-15T01:25:23;71.33;;;47.60;;
15130;SDS011;7666;50.920;4.628;2023-02-15T01:28:10;69.77;;;47.70;;
15130;SDS011;7666;50.920;4.628;2023-02-15T01:30:56;54.57;;;37.13;;
15130;SDS011;7666;50.920;4.628;2023-02-15T01:33:44;48.13;;;35.77;;
15130;SDS011;7666;50.920;4.628;2023-02-15T01:36:33;47.50;;;34.03;;
15130;SDS011;7666;50.920;4.628;2023-02-15T01:39:19;48.13;;;33.80;;
15130;SDS011;7666;50.920;4.628;2023-02-15T01:42:07;53.87;;;36.43;;
15130;SDS011;7666;50.920;4.628;2023-02-15T01:45:04;49.57;;;34.97;;
15130;SDS011;7666;50.920;4.628;2023-02-15T01:48:21;43.60;;;31.63;;
15130;SDS011;7666;50.920;4.628;2023-02-15T01:51:10;42.80;;;30.23;;
15130;SDS011;7666;50.920;4.628;2023-02-15T01:53:59;45.07;;;31.93;;
15130;SDS011;7666;50.920;4.628;2023-02-15T01:56:50;51.00;;;35.83;;
15130;SDS011;7666;50.920;4.628;2023-02-15T01:59:38;46.33;;;32.83;;
15130;SDS011;7666;50.920;4.628;2023-02-15T02:02:28;45.33;;;32.57;;
15130;SDS011;7666;50.920;4.628;2023-02-15T02:05:15;51.17;;;33.33;;
15130;SDS011;7666;50.920;4.628;2023-02-15T02:08:02;49.10;;;35.97;;
15130;SDS011;7666;50.920;4.628;2023-02-15T02:10:48;50.97;;;36.07;;
15130;SDS011;7666;50.920;4.628;2023-02-15T02:13:34;57.80;;;39.00;;
15130;SDS011;7666;50.920;4.628;2023-02-15T02:16:21;47.00;;;33.57;;
15130;SDS011;7666;50.920;4.628;2023-02-15T02:22:13;44.77;;;31.57;;
15130;SDS011;7666;50.920;4.628;2023-02-15T02:34:43;46.23;;;34.00;;
15130;SDS011;7666;50.920;4.628;2023-02-15T02:37:46;46.37;;;33.77;;
15130;SDS011;7666;50.920;4.628;2023-02-15T02:40:52;49.87;;;35.13;;
15130;SDS011;7666;50.920;4.628;2023-02-15T02:43:59;53.30;;;35.20;;
15130;SDS011;7666;50.920;4.628;2023-02-15T02:46:52;42.40;;;32.27;;
15130;SDS011;7666;50.920;4.628;2023-02-15T02:49:43;51.27;;;36.33;;
15130;SDS011;7666;50.920;4.628;2023-02-15T02:55:31;49.53;;;34.77;;
15130;SDS011;7666;50.920;4.628;2023-02-15T03:04:27;42.77;;;32.60;;
15130;SDS011;7666;50.920;4.628;2023-02-15T03:07:17;46.47;;;33.70;;
15130;SDS011;7666;50.920;4.628;2023-02-15T03:10:07;41.73;;;31.50;;
15130;SDS011;7666;50.920;4.628;2023-02-15T03:12:54;42.83;;;31.03;;
15130;SDS011;7666;50.920;4.628;2023-02-15T03:15:41;43.17;;;31.40;;
15130;SDS011;7666;50.920;4.628;2023-02-15T03:18:48;36.13;;;27.07;;
15130;SDS011;7666;50.920;4.628;2023-02-15T03:24:35;30.53;;;24.43;;
15130;SDS011;7666;50.920;4.628;2023-02-15T03:27:40;34.50;;;26.73;;
15130;SDS011;7666;50.920;4.628;2023-02-15T03:30:29;29.47;;;24.10;;
15130;SDS011;7666;50.920;4.628;2023-02-15T03:33:16;35.57;;;27.73;;
15130;SDS011;7666;50.920;4.628;2023-02-15T03:36:08;33.40;;;25.10;;
15130;SDS011;7666;50.920;4.628;2023-02-15T03:39:10;35.80;;;27.60;;
15130;SDS011;7666;50.920;4.628;2023-02-15T03:42:10;32.20;;;25.20;;
15130;SDS011;7666;50.920;4.628;2023-02-15T03:45:02;44.77;;;31.90;;
15130;SDS011;7666;50.920;4.628;2023-02-15T03:47:54;35.37;;;20.97;;
15130;SDS011;7666;50.920;4.628;2023-02-15T03:50:43;24.73;;;22.13;;
15130;SDS011;7666;50.920;4.628;2023-02-15T03:53:48;37.93;;;31.47;;
15130;SDS011;7666;50.920;4.628;2023-02-15T03:56:39;31.60;;;26.10;;
15130;SDS011;7666;50.920;4.628;2023-02-15T03:59:27;27.10;;;24.30;;
15130;SDS011;7666;50.920;4.628;2023-02-15T04:02:34;31.67;;;26.07;;
15130;SDS011;7666;50.920;4.628;2023-02-15T04:05:27;29.13;;;23.43;;
15130;SDS011;7666;50.920;4.628;2023-02-15T04:08:13;101.47;;;22.27;;
15130;SDS011;7666;50.920;4.628;2023-02-15T04:10:59;26.47;;;16.00;;
15130;SDS011;7666;50.920;4.628;2023-02-15T04:13:45;13.10;;;11.80;;
15130;SDS011;7666;50.920;4.628;2023-02-15T04:16:31;20.07;;;17.10;;
15130;SDS011;7666;50.920;4.628;2023-02-15T04:19:17;25.87;;;22.43;;
15130;SDS011;7666;50.920;4.628;2023-02-15T04:22:21;30.27;;;23.00;;
15130;SDS011;7666;50.920;4.628;2023-02-15T04:25:26;32.63;;;25.37;;
15130;SDS011;7666;50.920;4.628;2023-02-15T04:28:12;26.97;;;21.77;;
15130;SDS011;7666;50.920;4.628;2023-02-15T04:30:58;27.70;;;21.13;;
15130;SDS011;7666;50.920;4.628;2023-02-15T04:33:44;38.50;;;28.83;;
15130;SDS011;7666;50.920;4.628;2023-02-15T04:36:30;39.33;;;29.10;;
15130;SDS011;7666;50.920;4.628;2023-02-15T04:39:17;44.27;;;29.67;;
15130;SDS011;7666;50.920;4.628;2023-02-15T04:42:03;43.37;;;32.07;;
15130;SDS011;7666;50.920;4.628;2023-02-15T04:44:49;40.20;;;28.80;;
15130;SDS011;7666;50.920;4.628;2023-02-15T04:47:36;42.07;;;30.20;;
15130;SDS011;7666;50.920;4.628;2023-02-15T04:50:22;42.37;;;32.17;;
15130;SDS011;7666;50.920;4.628;2023-02-15T04:53:08;40.63;;;31.23;;
15130;SDS011;7666;50.920;4.628;2023-02-15T04:55:54;39.73;;;30.33;;
15130;SDS011;7666;50.920;4.628;2023-02-15T04:58:40;39.27;;;29.63;;
15130;SDS011;7666;50.920;4.628;2023-02-15T05:01:26;41.30;;;30.57;;
15130;SDS011;7666;50.920;4.628;2023-02-15T05:04:12;39.97;;;30.20;;
15130;SDS011;7666;50.920;4.628;2023-02-15T05:06:58;37.83;;;28.00;;
15130;SDS011;7666;50.920;4.628;2023-02-15T05:09:44;39.80;;;27.93;;
15130;SDS011;7666;50.920;4.628;2023-02-15T05:12:30;40.40;;;29.53;;
15130;SDS011;7666;50.920;4.628;2023-02-15T05:15:16;36.20;;;27.63;;
15130;SDS011;7666;50.920;4.628;2023-02-15T05:18:02;37.33;;;28.13;;
15130;SDS011;7666;50.920;4.628;2023-02-15T05:20:48;43.63;;;31.17;;
15130;SDS011;7666;50.920;4.628;2023-02-15T05:23:34;45.63;;;32.93;;
15130;SDS011;7666;50.920;4.628;2023-02-15T05:26:22;42.37;;;31.27;;
15130;SDS011;7666;50.920;4.628;2023-02-15T05:29:27;43.60;;;31.77;;
15130;SDS011;7666;50.920;4.628;2023-02-15T05:32:14;49.23;;;34.43;;
15130;SDS011;7666;50.920;4.628;2023-02-15T05:35:00;47.67;;;34.17;;
15130;SDS011;7666;50.920;4.628;2023-02-15T05:37:46;50.30;;;33.50;;
15130;SDS011;7666;50.920;4.628;2023-02-15T05:40:32;44.63;;;32.03;;
15130;SDS011;7666;50.920;4.628;2023-02-15T05:43:18;47.40;;;32.77;;
15130;SDS011;7666;50.920;4.628;2023-02-15T05:46:05;48.90;;;33.67;;
15130;SDS011;7666;50.920;4.628;2023-02-15T05:48:52;44.53;;;32.47;;
15130;SDS011;7666;50.920;4.628;2023-02-15T05:51:38;44.00;;;33.33;;
15130;SDS011;7666;50.920;4.628;2023-02-15T05:54:24;44.50;;;32.10;;
15130;SDS011;7666;50.920;4.628;2023-02-15T05:57:10;49.10;;;34.80;;
15130;SDS011;7666;50.920;4.628;2023-02-15T05:59:56;44.73;;;31.87;;
15130;SDS011;7666;50.920;4.628;2023-02-15T06:02:42;44.37;;;31.03;;
15130;SDS011;7666;50.920;4.628;2023-02-15T06:05:28;43.23;;;32.67;;
15130;SDS011;7666;50.920;4.628;2023-02-15T06:08:14;47.47;;;33.70;;
15130;SDS011;7666;50.920;4.628;2023-02-15T06:11:00;48.10;;;31.83;;
15130;SDS011;7666;50.920;4.628;2023-02-15T06:13:46;45.20;;;32.40;;
15130;SDS011;7666;50.920;4.628;2023-02-15T06:16:32;43.83;;;31.60;;
15130;SDS011;7666;50.920;4.628;2023-02-15T06:19:18;45.30;;;31.43;;
15130;SDS011;7666;50.920;4.628;2023-02-15T06:22:06;37.00;;;27.97;;
15130;SDS011;7666;50.920;4.628;2023-02-15T06:24:52;30.17;;;24.67;;
15130;SDS011;7666;50.920;4.628;2023-02-15T06:27:40;43.20;;;29.93;;
15130;SDS011;7666;50.920;4.628;2023-02-15T06:30:27;37.93;;;28.33;;
15130;SDS011;7666;50.920;4.628;2023-02-15T06:33:13;40.73;;;30.23;;
15130;SDS011;7666;50.920;4.628;2023-02-15T06:35:59;37.40;;;27.73;;
15130;SDS011;7666;50.920;4.628;2023-02-15T06:38:46;37.93;;;27.60;;
15130;SDS011;7666;50.920;4.628;2023-02-15T06:41:32;36.77;;;27.03;;
15130;SDS011;7666;50.920;4.628;2023-02-15T06:44:18;37.70;;;27.23;;
15130;SDS011;7666;50.920;4.628;2023-02-15T06:47:04;41.87;;;28.97;;
15130;SDS011;7666;50.920;4.628;2023-02-15T06:49:50;43.13;;;30.33;;
15130;SDS011;7666;50.920;4.628;2023-02-15T06:52:36;37.53;;;28.63;;
15130;SDS011;7666;50.920;4.628;2023-02-15T06:55:22;40.93;;;28.63;;
15130;SDS011;7666;50.920;4.628;2023-02-15T06:58:08;42.70;;;29.37;;
15130;SDS011;7666;50.920;4.628;2023-02-15T07:00:54;35.97;;;27.17;;
15130;SDS011;7666;50.920;4.628;2023-02-15T07:03:40;35.33;;;26.20;;
15130;SDS011;7666;50.920;4.628;2023-02-15T07:06:26;34.53;;;26.30;;
15130;SDS011;7666;50.920;4.628;2023-02-15T07:09:15;35.80;;;27.00;;
15130;SDS011;7666;50.920;4.628;2023-02-15T07:12:01;38.87;;;29.30;;
15130;SDS011;7666;50.920;4.628;2023-02-15T07:15:06;43.73;;;30.47;;
15130;SDS011;7666;50.920;4.628;2023-02-15T07:18:00;41.00;;;29.10;;
15130;SDS011;7666;50.920;4.628;2023-02-15T07:20:46;36.73;;;26.77;;
15130;SDS011;7666;50.920;4.628;2023-02-15T07:23:32;35.87;;;26.23;;
15130;SDS011;7666;50.920;4.628;2023-02-15T07:26:18;32.67;;;24.00;;
15130;SDS011;7666;50.920;4.628;2023-02-15T07:29:04;30.67;;;22.37;;
15130;SDS011;7666;50.920;4.628;2023-02-15T07:31:50;31.80;;;24.20;;
15130;SDS011;7666;50.920;4.628;2023-02-15T07:34:36;29.50;;;21.80;;
15130;SDS011;7666;50.920;4.628;2023-02-15T07:37:22;27.27;;;20.70;;
15130;SDS011;7666;50.920;4.628;2023-02-15T07:40:08;30.07;;;19.77;;
15130;SDS011;7666;50.920;4.628;2023-02-15T07:42:56;28.27;;;19.77;;
15130;SDS011;7666;50.920;4.628;2023-02-15T07:45:44;28.03;;;20.63;;
15130;SDS011;7666;50.920;4.628;2023-02-15T07:48:30;25.33;;;19.83;;
15130;SDS011;7666;50.920;4.628;2023-02-15T07:51:16;28.00;;;20.30;;
15130;SDS011;7666;50.920;4.628;2023-02-15T07:54:02;29.27;;;19.63;;
15130;SDS011;7666;50.920;4.628;2023-02-15T07:56:48;27.07;;;20.50;;
15130;SDS011;7666;50.920;4.628;2023-02-15T07:59:34;27.00;;;20.80;;
15130;SDS011;7666;50.920;4.628;2023-02-15T08:02:20;29.60;;;22.20;;
15130;SDS011;7666;50.920;4.628;2023-02-15T08:05:06;27.23;;;19.60;;
15130;SDS011;7666;50.920;4.628;2023-02-15T08:07:53;28.07;;;21.13;;
15130;SDS011;7666;50.920;4.628;2023-02-15T08:10:39;29.57;;;21.20;;
15130;SDS011;7666;50.920;4.628;2023-02-15T08:13:45;27.97;;;21.23;;
15130;SDS011;7666;50.920;4.628;2023-02-15T08:16:43;29.63;;;22.23;;
15130;SDS011;7666;50.920;4.628;2023-02-15T08:19:33;28.73;;;22.37;;
15130;SDS011;7666;50.920;4.628;2023-02-15T08:22:19;41.60;;;29.53;;
15130;SDS011;7666;50.920;4.628;2023-02-15T08:25:06;30.53;;;22.83;;
15130;SDS011;7666;50.920;4.628;2023-02-15T08:27:52;37.47;;;28.97;;
15130;SDS011;7666;50.920;4.628;2023-02-15T08:30:38;42.33;;;26.63;;
15130;SDS011;7666;50.920;4.628;2023-02-15T08:33:24;39.90;;;23.67;;
15130;SDS011;7666;50.920;4.628;2023-02-15T08:36:12;34.73;;;23.87;;
15130;SDS011;7666;50.920;4.628;2023-02-15T08:39:01;30.03;;;23.30;;
15130;SDS011;7666;50.920;4.628;2023-02-15T08:41:48;29.13;;;22.50;;
15130;SDS011;7666;50.920;4.628;2023-02-15T08:44:34;35.47;;;25.43;;
15130;SDS011;7666;50.920;4.628;2023-02-15T08:47:20;33.30;;;23.43;;
15130;SDS011;7666;50.920;4.628;2023-02-15T08:50:06;30.93;;;23.37;;
15130;SDS011;7666;50.920;4.628;2023-02-15T08:52:53;35.63;;;24.80;;
15130;SDS011;7666;50.920;4.628;2023-02-15T08:55:39;35.40;;;24.33;;
15130;SDS011;7666;50.920;4.628;2023-02-15T08:58:25;33.03;;;24.10;;
15130;SDS011;7666;50.920;4.628;2023-02-15T09:01:13;32.13;;;24.10;;
15130;SDS011;7666;50.920;4.628;2023-02-15T09:04:04;34.97;;;25.30;;
15130;SDS011;7666;50.920;4.628;2023-02-15T09:06:53;33.37;;;23.07;;
15130;SDS011;7666;50.920;4.628;2023-02-15T09:09:40;32.87;;;24.70;;
15130;SDS011;7666;50.920;4.628;2023-02-15T09:12:26;32.33;;;23.57;;
15130;SDS011;7666;50.920;4.628;2023-02-15T09:15:12;31.50;;;23.43;;
15130;SDS011;7666;50.920;4.628;2023-02-15T09:17:58;32.90;;;22.67;;
15130;SDS011;7666;50.920;4.628;2023-02-15T09:20:47;30.57;;;23.23;;
15130;SDS011;7666;50.920;4.628;2023-02-15T09:23:34;35.13;;;25.17;;
15130;SDS011;7666;50.920;4.628;2023-02-15T09:26:21;30.90;;;22.60;;
15130;SDS011;7666;50.920;4.628;2023-02-15T09:29:09;31.93;;;22.57;;
15130;SDS011;7666;50.920;4.628;2023-02-15T09:31:56;32.30;;;21.33;;
15130;SDS011;7666;50.920;4.628;2023-02-15T09:34:42;30.70;;;22.97;;
15130;SDS011;7666;50.920;4.628;2023-02-15T09:37:29;28.90;;;21.10;;
15130;SDS011;7666;50.920;4.628;2023-02-15T09:40:17;31.73;;;21.97;;
15130;SDS011;7666;50.920;4.628;2023-02-15T09:43:07;29.10;;;21.17;;
15130;SDS011;7666;50.920;4.628;2023-02-15T09:49:10;30.43;;;22.17;;
15130;SDS011;7666;50.920;4.628;2023-02-15T09:58:15;24.63;;;19.03;;
15130;SDS011;7666;50.920;4.628;2023-02-15T10:01:25;25.87;;;18.73;;
15130;SDS011;7666;50.920;4.628;2023-02-15T10:10:57;29.53;;;19.77;;
15130;SDS011;7666;50.920;4.628;2023-02-15T10:27:07;30.50;;;20.23;;
15130;SDS011;7666;50.920;4.628;2023-02-15T10:30:14;31.00;;;20.60;;
15130;SDS011;7666;50.920;4.628;2023-02-15T10:33:01;28.77;;;19.73;;
15130;SDS011;7666;50.920;4.628;2023-02-15T10:48:21;30.57;;;20.57;;
15130;SDS011;7666;50.920;4.628;2023-02-15T10:51:25;29.43;;;20.07;;
15130;SDS011;7666;50.920;4.628;2023-02-15T10:57:40;28.80;;;20.43;;
15130;SDS011;7666;50.920;4.628;2023-02-15T11:03:51;29.40;;;20.03;;
15130;SDS011;7666;50.920;4.628;2023-02-15T11:07:02;30.10;;;19.20;;
15130;SDS011;7666;50.920;4.628;2023-02-15T11:09:53;29.83;;;20.90;;
15130;SDS011;7666;50.920;4.628;2023-02-15T11:12:46;30.20;;;21.03;;
15130;SDS011;7666;50.920;4.628;2023-02-15T11:15:35;28.23;;;19.73;;
15130;SDS011;7666;50.920;4.628;2023-02-15T11:18:36;26.43;;;18.97;;
15130;SDS011;7666;50.920;4.628;2023-02-15T11:21:33;30.43;;;19.07;;
15130;SDS011;7666;50.920;4.628;2023-02-15T11:24:26;31.37;;;20.40;;
15130;SDS011;7666;50.920;4.628;2023-02-15T11:27:25;33.57;;;20.20;;
15130;SDS011;7666;50.920;4.628;2023-02-15T11:30:19;31.17;;;20.07;;
15130;SDS011;7666;50.920;4.628;2023-02-15T11:33:12;33.57;;;20.47;;
15130;SDS011;7666;50.920;4.628;2023-02-15T11:36:05;30.77;;;20.47;;
15130;SDS011;7666;50.920;4.628;2023-02-15T11:38:58;29.40;;;19.30;;
15130;SDS011;7666;50.920;4.628;2023-02-15T11:41:50;31.43;;;20.10;;
15130;SDS011;7666;50.920;4.628;2023-02-15T11:47:47;28.63;;;20.40;;
15130;SDS011;7666;50.920;4.628;2023-02-15T11:50:33;31.00;;;20.40;;
15130;SDS011;7666;50.920;4.628;2023-02-15T11:53:20;30.60;;;21.57;;
15130;SDS011;7666;50.920;4.628;2023-02-15T11:56:13;29.00;;;19.17;;
15130;SDS011;7666;50.920;4.628;2023-02-15T11:59:03;29.87;;;20.03;;
15130;SDS011;7666;50.920;4.628;2023-02-15T12:01:55;29.17;;;21.20;;
15130;SDS011;7666;50.920;4.628;2023-02-15T12:04:42;29.27;;;19.80;;
15130;SDS011;7666;50.920;4.628;2023-02-15T12:07:37;28.63;;;19.73;;
15130;SDS011;7666;50.920;4.628;2023-02-15T12:10:38;29.83;;;20.70;;
15130;SDS011;7666;50.920;4.628;2023-02-15T12:13:30;31.73;;;20.97;;
15130;SDS011;7666;50.920;4.628;2023-02-15T12:16:16;28.37;;;20.00;;
15130;SDS011;7666;50.920;4.628;2023-02-15T12:19:02;28.53;;;20.47;;
15130;SDS011;7666;50.920;4.628;2023-02-15T12:21:49;32.63;;;21.40;;
15130;SDS011;7666;50.920;4.628;2023-02-15T12:24:37;28.53;;;21.07;;
15130;SDS011;7666;50.920;4.628;2023-02-15T12:27:32;31.90;;;20.30;;
15130;SDS011;7666;50.920;4.628;2023-02-15T12:30:34;30.03;;;20.73;;
15130;SDS011;7666;50.920;4.628;2023-02-15T12:36:26;33.17;;;21.17;;
15130;SDS011;7666;50.920;4.628;2023-02-15T12:39:21;29.67;;;20.90;;
15130;SDS011;7666;50.920;4.628;2023-02-15T12:42:15;29.23;;;20.93;;
15130;SDS011;7666;50.920;4.628;2023-02-15T12:45:03;30.00;;;20.57;;
15130;SDS011;7666;50.920;4.628;2023-02-15T12:48:09;30.43;;;21.27;;
15130;SDS011;7666;50.920;4.628;2023-02-15T12:51:06;29.07;;;20.97;;
15130;SDS011;7666;50.920;4.628;2023-02-15T12:53:53;29.40;;;21.67;;
15130;SDS011;7666;50.920;4.628;2023-02-15T12:56:39;31.10;;;21.03;;
15130;SDS011;7666;50.920;4.628;2023-02-15T12:59:25;29.07;;;21.00;;
15130;SDS011;7666;50.920;4.628;2023-02-15T13:02:15;26.73;;;20.00;;
15130;SDS011;7666;50.920;4.628;2023-02-15T13:08:08;31.20;;;20.77;;
15130;SDS011;7666;50.920;4.628;2023-02-15T13:11:04;28.77;;;21.10;;
15130;SDS011;7666;50.920;4.628;2023-02-15T13:14:00;29.43;;;21.03;;
15130;SDS011;7666;50.920;4.628;2023-02-15T13:16:50;29.17;;;21.47;;
15130;SDS011;7666;50.920;4.628;2023-02-15T13:22:43;31.77;;;21.57;;
15130;SDS011;7666;50.920;4.628;2023-02-15T13:25:32;28.37;;;21.23;;
15130;SDS011;7666;50.920;4.628;2023-02-15T13:28:39;29.40;;;21.60;;
15130;SDS011;7666;50.920;4.628;2023-02-15T13:31:28;30.90;;;21.13;;
15130;SDS011;7666;50.920;4.628;2023-02-15T13:34:28;31.90;;;21.80;;
15130;SDS011;7666;50.920;4.628;2023-02-15T13:41:00;31.50;;;20.80;;
15130;SDS011;7666;50.920;4.628;2023-02-15T13:59:46;31.10;;;21.77;;
15130;SDS011;7666;50.920;4.628;2023-02-15T14:11:54;29.33;;;21.60;;
15130;SDS011;7666;50.920;4.628;2023-02-15T14:17:55;32.97;;;22.70;;
15130;SDS011;7666;50.920;4.628;2023-02-15T14:21:15;30.10;;;22.53;;
15130;SDS011;7666;50.920;4.628;2023-02-15T14:27:26;29.33;;;20.87;;
15130;SDS011;7666;50.920;4.628;2023-02-15T14:30:25;31.53;;;22.67;;
15130;SDS011;7666;50.920;4.628;2023-02-15T14:33:28;32.17;;;23.07;;
15130;SDS011;7666;50.920;4.628;2023-02-15T14:36:21;31.30;;;21.37;;
15130;SDS011;7666;50.920;4.628;2023-02-15T14:39:21;29.40;;;20.43;;
15130;SDS011;7666;50.920;4.628;2023-02-15T14:42:48;29.20;;;20.70;;
15130;SDS011;7666;50.920;4.628;2023-02-15T14:45:56;27.90;;;20.37;;
15130;SDS011;7666;50.920;4.628;2023-02-15T14:57:23;30.80;;;21.00;;
15130;SDS011;7666;50.920;4.628;2023-02-15T15:00:29;29.67;;;20.73;;
15130;SDS011;7666;50.920;4.628;2023-02-15T15:03:20;30.23;;;22.13;;
15130;SDS011;7666;50.920;4.628;2023-02-15T15:06:20;28.67;;;21.20;;
15130;SDS011;7666;50.920;4.628;2023-02-15T15:15:13;30.20;;;21.63;;
15130;SDS011;7666;50.920;4.628;2023-02-15T15:27:37;33.33;;;24.50;;
15130;SDS011;7666;50.920;4.628;2023-02-15T15:33:22;32.70;;;23.17;;
15130;SDS011;7666;50.920;4.628;2023-02-15T15:46:24;35.63;;;24.43;;
15130;SDS011;7666;50.920;4.628;2023-02-15T15:49:20;32.87;;;24.10;;
15130;SDS011;7666;50.920;4.628;2023-02-15T15:52:19;32.80;;;24.13;;
15130;SDS011;7666;50.920;4.628;2023-02-15T15:55:13;33.57;;;24.20;;
15130;SDS011;7666;50.920;4.628;2023-02-15T15:58:03;33.40;;;23.80;;
15130;SDS011;7666;50.920;4.628;2023-02-15T16:00:55;31.70;;;22.70;;
15130;SDS011;7666;50.920;4.628;2023-02-15T16:03:50;34.30;;;23.60;;
15130;SDS011;7666;50.920;4.628;2023-02-15T16:06:38;33.77;;;23.20;;
15130;SDS011;7666;50.920;4.628;2023-02-15T16:09:26;31.27;;;23.57;;
15130;SDS011;7666;50.920;4.628;2023-02-15T16:12:13;33.20;;;24.97;;
15130;SDS011;7666;50.920;4.628;2023-02-15T16:15:14;37.47;;;25.40;;
15130;SDS011;7666;50.920;4.628;2023-02-15T16:18:21;35.20;;;25.07;;
15130;SDS011;7666;50.920;4.628;2023-02-15T16:21:14;34.80;;;25.43;;
15130;SDS011;7666;50.920;4.628;2023-02-15T16:33:11;36.70;;;25.63;;
15130;SDS011;7666;50.920;4.628;2023-02-15T16:36:00;37.93;;;26.40;;
15130;SDS011;7666;50.920;4.628;2023-02-15T16:41:37;35.63;;;26.00;;
15130;SDS011;7666;50.920;4.628;2023-02-15T16:44:23;35.33;;;26.10;;
15130;SDS011;7666;50.920;4.628;2023-02-15T16:47:31;36.60;;;26.27;;
15130;SDS011;7666;50.920;4.628;2023-02-15T16:50:20;34.60;;;24.10;;
15130;SDS011;7666;50.920;4.628;2023-02-15T16:53:13;38.77;;;24.17;;
15130;SDS011;7666;50.920;4.628;2023-02-15T16:56:04;35.40;;;24.63;;
15130;SDS011;7666;50.920;4.628;2023-02-15T16:58:50;38.97;;;26.40;;
15130;SDS011;7666;50.920;4.628;2023-02-15T17:01:39;35.97;;;25.40;;
15130;SDS011;7666;50.920;4.628;2023-02-15T17:04:30;33.87;;;25.97;;
15130;SDS011;7666;50.920;4.628;2023-02-15T17:07:18;33.87;;;25.23;;
15130;SDS011;7666;50.920;4.628;2023-02-15T17:10:15;40.90;;;27.20;;
15130;SDS011;7666;50.920;4.628;2023-02-15T17:13:16;37.47;;;27.57;;
15130;SDS011;7666;50.920;4.628;2023-02-15T17:18:49;35.43;;;26.50;;
15130;SDS011;7666;50.920;4.628;2023-02-15T17:21:38;37.67;;;26.63;;
15130;SDS011;7666;50.920;4.628;2023-02-15T17:24:31;40.67;;;27.20;;
15130;SDS011;7666;50.920;4.628;2023-02-15T17:27:22;38.07;;;28.07;;
15130;SDS011;7666;50.920;4.628;2023-02-15T17:30:14;38.77;;;28.73;;
15130;SDS011;7666;50.920;4.628;2023-02-15T17:33:17;36.37;;;27.27;;
15130;SDS011;7666;50.920;4.628;2023-02-15T17:36:08;38.47;;;28.03;;
15130;SDS011;7666;50.920;4.628;2023-02-15T17:41:43;40.30;;;28.73;;
15130;SDS011;7666;50.920;4.628;2023-02-15T17:44:30;43.97;;;30.23;;
15130;SDS011;7666;50.920;4.628;2023-02-15T17:47:17;48.03;;;30.23;;
15130;SDS011;7666;50.920;4.628;2023-02-15T17:50:06;42.20;;;30.27;;
15130;SDS011;7666;50.920;4.628;2023-02-15T17:52:53;40.07;;;29.63;;
15130;SDS011;7666;50.920;4.628;2023-02-15T17:55:41;43.90;;;31.40;;
15130;SDS011;7666;50.920;4.628;2023-02-15T17:58:27;47.00;;;32.40;;
15130;SDS011;7666;50.920;4.628;2023-02-15T18:01:15;43.13;;;31.90;;
15130;SDS011;7666;50.920;4.628;2023-02-15T18:04:22;42.80;;;31.37;;
15130;SDS011;7666;50.920;4.628;2023-02-15T18:07:28;44.40;;;32.03;;
15130;SDS011;7666;50.920;4.628;2023-02-15T18:10:32;45.67;;;32.70;;
15130;SDS011;7666;50.920;4.628;2023-02-15T18:13:37;43.60;;;32.20;;
15130;SDS011;7666;50.920;4.628;2023-02-15T18:16:24;43.90;;;32.73;;
15130;SDS011;7666;50.920;4.628;2023-02-15T18:22:15;43.73;;;31.17;;
15130;SDS011;7666;50.920;4.628;2023-02-15T18:25:03;48.70;;;32.17;;
15130;SDS011;7666;50.920;4.628;2023-02-15T18:27:49;43.30;;;31.57;;
15130;SDS011;7666;50.920;4.628;2023-02-15T18:30:36;44.67;;;31.83;;
15130;SDS011;7666;50.920;4.628;2023-02-15T18:33:32;43.50;;;30.80;;
15130;SDS011;7666;50.920;4.628;2023-02-15T18:36:25;44.10;;;30.70;;
15130;SDS011;7666;50.920;4.628;2023-02-15T18:39:22;44.83;;;32.63;;
15130;SDS011;7666;50.920;4.628;2023-02-15T18:42:26;40.13;;;30.70;;
15130;SDS011;7666;50.920;4.628;2023-02-15T18:45:19;43.13;;;31.03;;
15130;SDS011;7666;50.920;4.628;2023-02-15T18:48:09;49.27;;;34.30;;
15130;SDS011;7666;50.920;4.628;2023-02-15T18:50:55;47.30;;;32.53;;
15130;SDS011;7666;50.920;4.628;2023-02-15T18:53:41;45.67;;;32.30;;
15130;SDS011;7666;50.920;4.628;2023-02-15T18:56:28;41.97;;;31.87;;
15130;SDS011;7666;50.920;4.628;2023-02-15T18:59:17;45.17;;;33.00;;
15130;SDS011;7666;50.920;4.628;2023-02-15T19:02:09;44.77;;;33.13;;
15130;SDS011;7666;50.920;4.628;2023-02-15T19:04:59;42.57;;;32.17;;
15130;SDS011;7666;50.920;4.628;2023-02-15T19:07:45;43.93;;;32.70;;
15130;SDS011;7666;50.920;4.628;2023-02-15T19:10:35;42.50;;;32.33;;
15130;SDS011;7666;50.920;4.628;2023-02-15T19:13:21;42.73;;;32.53;;
15130;SDS011;7666;50.920;4.628;2023-02-15T19:16:08;43.77;;;31.33;;
15130;SDS011;7666;50.920;4.628;2023-02-15T19:19:19;43.93;;;32.50;;
15130;SDS011;7666;50.920;4.628;2023-02-15T19:22:05;45.70;;;30.53;;
15130;SDS011;7666;50.920;4.628;2023-02-15T19:24:55;42.07;;;30.50;;
15130;SDS011;7666;50.920;4.628;2023-02-15T19:27:43;38.40;;;28.57;;
15130;SDS011;7666;50.920;4.628;2023-02-15T19:30:31;38.63;;;29.60;;
15130;SDS011;7666;50.920;4.628;2023-02-15T19:33:18;39.97;;;30.30;;
15130;SDS011;7666;50.920;4.628;2023-02-15T19:36:05;37.70;;;28.67;;
15130;SDS011;7666;50.920;4.628;2023-02-15T19:39:01;39.10;;;29.07;;
15130;SDS011;7666;50.920;4.628;2023-02-15T19:41:47;38.20;;;29.17;;
15130;SDS011;7666;50.920;4.628;2023-02-15T19:44:33;39.17;;;29.27;;
15130;SDS011;7666;50.920;4.628;2023-02-15T19:47:19;35.53;;;28.67;;
15130;SDS011;7666;50.920;4.628;2023-02-15T19:50:06;38.93;;;29.40;;